Time;durP1;ratioP1;P1;durP2;ratioP2;P2;SDS_P1;SDS_P2;PMS_P1;PMS_P2;Temp;Humidity;BMP_temperature;BMP_pressure;BME280_temperature;BME280_humidity;BME280_pressure;Samples;Min_cycle;Max_cycle;Signal;HPM_P1;HPM_P2
2023/01/09 00:00:55;;;;;;;5.65;2.33;;;7.90;99.90;;;;;;7370574;19;20035;-59
2023/01/09 00:03:24;;;;;;;7.25;2.60;;;7.90;99.90;;;;;;7369297;19;20015;-59
2023/01/09 00:05:50;;;;;;;5.95;2.65;;;8.00;99.90;;;;;;7368057;19;20544;-59
2023/01/09 00:08:18;;;;;;;6.28;2.60;;;8.00;99.90;;;;;;7385509;19;20480;-57
2023/01/09 00:10:44;;;;;;;7.97;2.70;;;8.00;99.90;;;;;;7382515;19;20052;-59
2023/01/09 00:13:12;;;;;;;6.32;2.50;;;8.00;99.90;;;;;;7369538;19;20462;-60
2023/01/09 00:15:39;;;;;;;5.28;2.30;;;8.00;99.90;;;;;;7366618;19;20464;-59
2023/01/09 00:18:06;;;;;;;5.05;2.63;;;8.00;99.90;;;;;;7367685;19;20117;-59
2023/01/09 00:20:32;;;;;;;5.85;2.75;;;8.00;99.90;;;;;;7379756;19;20025;-57
2023/01/09 00:22:58;;;;;;;7.82;2.72;;;8.00;99.90;;;;;;7392238;19;20044;-57
2023/01/09 00:25:24;;;;;;;6.70;3.40;;;7.90;99.90;;;;;;7384848;19;20512;-56
2023/01/09 00:27:51;;;;;;;6.95;3.13;;;7.80;99.90;;;;;;7382078;19;20022;-58
2023/01/09 00:30:17;;;;;;;9.32;3.50;;;7.80;99.90;;;;;;7384912;19;20019;-54
2023/01/09 00:32:45;;;;;;;4.28;2.30;;;7.70;99.90;;;;;;7386259;19;20029;-56
2023/01/09 00:35:16;;;;;;;4.68;2.55;;;7.60;99.90;;;;;;7388678;19;20504;-56
2023/01/09 00:37:42;;;;;;;3.97;1.60;;;7.50;99.90;;;;;;7386412;19;20023;-55
2023/01/09 00:40:10;;;;;;;6.32;1.90;;;7.40;99.90;;;;;;7384072;19;20018;-55
2023/01/09 00:42:37;;;;;;;4.03;1.92;;;7.30;99.90;;;;;;7380239;19;20014;-55
2023/01/09 00:45:13;;;;;;;4.03;1.50;;;7.20;99.90;;;;;;7377355;19;20081;-54
2023/01/09 00:47:47;;;;;;;2.05;0.85;;;7.10;99.90;;;;;;7375674;19;20062;-58
2023/01/09 00:50:22;;;;;;;3.83;1.17;;;7.10;99.90;;;;;;7366224;19;20014;-58
2023/01/09 00:52:50;;;;;;;2.58;0.90;;;7.00;99.90;;;;;;7369915;19;20643;-59
2023/01/09 00:55:17;;;;;;;4.38;1.17;;;7.00;99.90;;;;;;7371172;19;20014;-56
2023/01/09 00:57:43;;;;;;;1.63;0.90;;;6.90;99.90;;;;;;7376925;19;20525;-56
2023/01/09 01:00:12;;;;;;;1.50;0.85;;;6.90;99.90;;;;;;7378794;19;20011;-54
2023/01/09 01:02:38;;;;;;;2.42;0.77;;;6.90;99.90;;;;;;7376632;19;20673;-55
2023/01/09 01:07:50;;;;;;;1.80;0.65;;;6.80;99.90;;;;;;7366090;19;20492;-59
2023/01/09 01:10:23;;;;;;;2.03;0.52;;;6.80;99.90;;;;;;7369950;19;20035;-58
2023/01/09 01:12:51;;;;;;;1.35;0.60;;;6.80;99.90;;;;;;7369143;19;20416;-58
2023/01/09 01:15:19;;;;;;;2.20;0.75;;;6.80;99.90;;;;;;7371039;19;20015;-56
2023/01/09 01:17:47;;;;;;;2.35;0.80;;;6.80;99.90;;;;;;7377592;19;20018;-56
2023/01/09 01:20:16;;;;;;;2.72;1.13;;;6.80;99.90;;;;;;7377256;19;20018;-56
2023/01/09 01:22:46;;;;;;;1.20;0.70;;;6.70;99.90;;;;;;7374285;19;20023;-59
2023/01/09 01:25:15;;;;;;;3.20;1.00;;;6.70;99.90;;;;;;7375314;19;20460;-56
2023/01/09 01:27:43;;;;;;;1.67;0.95;;;6.70;99.90;;;;;;7381184;19;20100;-55
2023/01/09 01:30:12;;;;;;;1.80;0.90;;;6.70;99.90;;;;;;7383247;19;20480;-56
2023/01/09 01:32:39;;;;;;;3.60;1.40;;;6.60;99.90;;;;;;7382117;19;20115;-56
2023/01/09 01:35:07;;;;;;;1.58;1.30;;;6.60;99.90;;;;;;7381347;19;20011;-56
2023/01/09 01:37:35;;;;;;;3.13;1.38;;;6.60;99.90;;;;;;7383137;19;20022;-56
2023/01/09 01:40:03;;;;;;;3.33;1.88;;;6.70;99.90;;;;;;7381432;19;20036;-56
2023/01/09 01:42:34;;;;;;;4.38;1.67;;;6.70;99.90;;;;;;7380810;19;20022;-55
2023/01/09 01:45:18;;;;;;;5.93;2.67;;;6.70;99.90;;;;;;7381251;19;20015;-56
2023/01/09 01:48:01;;;;;;;2.90;2.00;;;6.70;99.90;;;;;;7379339;19;20021;-56
2023/01/09 01:50:38;;;;;;;4.97;2.40;;;6.70;99.90;;;;;;7381673;19;20018;-56
2023/01/09 01:53:25;;;;;;;4.18;2.58;;;6.70;99.90;;;;;;7371884;19;20074;-59
2023/01/09 01:56:27;;;;;;;5.32;3.08;;;6.70;99.90;;;;;;7371134;19;20046;-55
2023/01/09 01:59:03;;;;;;;5.47;3.47;;;6.80;99.90;;;;;;7376698;19;20111;-55
2023/01/09 02:01:37;;;;;;;4.68;3.65;;;6.90;99.90;;;;;;7379374;19;20015;-56
2023/01/09 02:04:03;;;;;;;7.72;3.50;;;6.90;99.90;;;;;;7374405;19;20019;-59
2023/01/09 02:06:33;;;;;;;6.88;4.13;;;6.90;99.90;;;;;;7372612;19;20078;-55
2023/01/09 02:09:02;;;;;;;8.68;3.90;;;6.90;99.90;;;;;;7381089;19;20018;-56
2023/01/09 02:11:29;;;;;;;10.50;4.07;;;7.00;99.90;;;;;;7381276;19;20025;-55
2023/01/09 02:13:57;;;;;;;8.23;3.70;;;7.00;99.90;;;;;;7363802;19;20448;-59
2023/01/09 02:16:29;;;;;;;6.22;3.45;;;7.00;99.90;;;;;;7368781;19;20107;-59
2023/01/09 02:19:14;;;;;;;8.05;3.40;;;7.00;99.90;;;;;;7366043;19;20014;-59
2023/01/09 02:22:16;;;;;;;6.93;3.47;;;7.00;99.90;;;;;;7367427;19;20019;-59
2023/01/09 02:25:07;;;;;;;6.90;3.97;;;7.10;99.90;;;;;;7372341;19;20014;-56
2023/01/09 02:28:04;;;;;;;7.40;3.88;;;7.00;99.90;;;;;;7381325;19;20018;-56
2023/01/09 02:30:50;;;;;;;5.55;3.13;;;6.90;99.90;;;;;;7380349;19;20022;-56
2023/01/09 02:33:39;;;;;;;6.65;3.67;;;6.90;99.90;;;;;;7384760;19;20051;-56
2023/01/09 02:36:18;;;;;;;7.30;3.50;;;6.90;99.90;;;;;;7383055;19;20029;-57
2023/01/09 02:39:08;;;;;;;7.18;3.75;;;6.90;99.90;;;;;;7382871;19;20022;-56
2023/01/09 02:41:56;;;;;;;8.27;3.40;;;6.80;99.90;;;;;;7381549;19;20027;-56
2023/01/09 02:44:25;;;;;;;8.82;4.05;;;6.70;99.90;;;;;;7381698;19;20123;-56
2023/01/09 02:47:28;;;;;;;8.13;3.60;;;6.70;99.90;;;;;;7365302;19;20508;-59
2023/01/09 02:49:57;;;;;;;5.20;3.42;;;6.60;99.90;;;;;;7360431;19;20022;-59
2023/01/09 02:52:44;;;;;;;6.55;4.20;;;6.60;99.90;;;;;;7363477;19;20018;-59
2023/01/09 02:55:28;;;;;;;9.25;3.30;;;6.50;99.90;;;;;;7363797;19;20017;-59
2023/01/09 02:58:07;;;;;;;8.10;3.42;;;6.50;99.90;;;;;;7366739;19;20292;-60
2023/01/09 03:00:47;;;;;;;7.32;3.58;;;6.50;99.90;;;;;;7364962;19;20014;-59
2023/01/09 03:03:28;;;;;;;5.60;3.30;;;6.50;99.90;;;;;;7366106;19;20346;-59
2023/01/09 03:06:32;;;;;;;9.43;4.13;;;6.40;99.90;;;;;;7374181;19;20614;-56
2023/01/09 03:09:07;;;;;;;8.77;4.38;;;6.30;99.90;;;;;;7371359;19;20035;-58
2023/01/09 03:11:41;;;;;;;8.25;4.00;;;6.30;99.90;;;;;;7358044;19;20022;-59
2023/01/09 03:14:16;;;;;;;10.77;4.82;;;6.30;99.90;;;;;;7381150;19;20014;-56
2023/01/09 03:16:47;;;;;;;7.95;3.92;;;6.20;99.90;;;;;;7382085;19;20022;-56
2023/01/09 03:19:18;;;;;;;8.15;4.60;;;6.10;99.90;;;;;;7383240;19;20023;-56
2023/01/09 03:21:46;;;;;;;9.70;4.30;;;6.00;99.90;;;;;;7381028;19;20019;-57
2023/01/09 03:24:13;;;;;;;8.50;3.97;;;6.00;99.90;;;;;;7380908;19;20480;-57
2023/01/09 03:26:39;;;;;;;10.98;4.45;;;5.90;99.90;;;;;;7378836;19;20014;-57
2023/01/09 03:29:05;;;;;;;9.23;4.32;;;5.90;99.90;;;;;;7383012;19;20473;-56
2023/01/09 03:31:32;;;;;;;10.18;4.05;;;5.80;99.90;;;;;;7381595;19;20477;-56
2023/01/09 03:33:58;;;;;;;7.05;4.15;;;5.80;99.90;;;;;;7380230;19;20007;-59
2023/01/09 03:36:25;;;;;;;7.32;4.00;;;5.70;99.90;;;;;;7363432;19;20018;-59
2023/01/09 03:38:51;;;;;;;9.57;4.47;;;5.60;99.90;;;;;;7362769;19;20523;-59
2023/01/09 03:41:18;;;;;;;9.77;5.00;;;5.60;99.90;;;;;;7367443;19;20035;-59
2023/01/09 03:43:47;;;;;;;10.90;4.88;;;5.60;99.90;;;;;;7362972;19;20420;-59
2023/01/09 03:46:15;;;;;;;9.85;5.40;;;5.50;99.90;;;;;;7368809;19;20011;-59
2023/01/09 03:48:41;;;;;;;9.98;4.78;;;5.50;99.90;;;;;;7364914;19;20570;-59
2023/01/09 03:51:08;;;;;;;9.07;4.35;;;5.40;99.90;;;;;;7365765;19;20021;-58
2023/01/09 03:53:34;;;;;;;9.68;5.15;;;5.30;99.90;;;;;;7363306;19;20021;-59
2023/01/09 03:56:04;;;;;;;9.60;5.10;;;5.30;99.90;;;;;;7359446;19;20505;-59
2023/01/09 03:58:30;;;;;;;13.15;5.88;;;5.20;99.90;;;;;;7363102;19;20023;-58
2023/01/09 04:01:00;;;;;;;13.75;5.55;;;5.20;99.90;;;;;;7360320;19;20102;-59
2023/01/09 04:03:27;;;;;;;9.40;5.18;;;5.20;99.90;;;;;;7370740;19;20014;-56
2023/01/09 04:05:55;;;;;;;11.57;6.18;;;5.10;99.90;;;;;;7377396;19;20078;-56
2023/01/09 04:08:22;;;;;;;11.13;6.47;;;5.10;99.90;;;;;;7381387;19;20037;-56
2023/01/09 04:10:50;;;;;;;10.25;7.20;;;5.10;99.90;;;;;;7379857;19;20018;-56
2023/01/09 04:13:17;;;;;;;15.93;8.82;;;5.10;99.90;;;;;;7380008;19;20047;-56
2023/01/09 04:15:43;;;;;;;16.30;8.90;;;5.20;99.90;;;;;;7379632;19;20011;-56
2023/01/09 04:18:10;;;;;;;16.45;9.85;;;5.20;99.90;;;;;;7378855;19;20392;-59
2023/01/09 04:20:36;;;;;;;16.90;9.98;;;5.20;99.90;;;;;;7369109;19;20557;-59
2023/01/09 04:23:03;;;;;;;13.32;9.30;;;5.20;99.90;;;;;;7369249;19;20066;-59
2023/01/09 04:25:29;;;;;;;14.35;10.15;;;5.20;99.90;;;;;;7368450;19;20022;-59
2023/01/09 04:27:56;;;;;;;18.23;10.38;;;5.20;99.90;;;;;;7379811;19;20105;-56
2023/01/09 04:30:22;;;;;;;21.42;11.38;;;5.10;99.90;;;;;;7367679;19;20575;-59
2023/01/09 04:32:48;;;;;;;18.95;11.50;;;5.10;99.90;;;;;;7369415;19;20030;-59
2023/01/09 04:35:15;;;;;;;19.05;12.90;;;5.10;99.90;;;;;;7383489;19;20385;-57
2023/01/09 04:37:41;;;;;;;21.98;13.05;;;5.10;99.90;;;;;;7385771;19;20374;-56
2023/01/09 04:40:09;;;;;;;24.85;14.10;;;5.10;99.90;;;;;;7387720;19;20094;-55
2023/01/09 04:42:36;;;;;;;22.65;14.80;;;5.10;99.90;;;;;;7384756;19;20093;-59
2023/01/09 04:45:06;;;;;;;25.95;15.80;;;5.00;99.90;;;;;;7371198;19;20494;-58
2023/01/09 04:47:32;;;;;;;23.70;15.45;;;5.10;99.90;;;;;;7373484;19;20407;-59
2023/01/09 04:49:59;;;;;;;27.98;16.55;;;5.10;99.90;;;;;;7385765;19;20523;-56
2023/01/09 04:52:26;;;;;;;26.88;17.40;;;5.10;99.90;;;;;;7385178;19;20502;-56
2023/01/09 04:54:53;;;;;;;29.58;17.35;;;5.10;99.90;;;;;;7381325;19;20125;-59
2023/01/09 04:57:20;;;;;;;27.63;18.70;;;5.10;99.90;;;;;;7371920;19;20018;-59
2023/01/09 04:59:46;;;;;;;30.52;20.83;;;5.20;99.90;;;;;;7370868;19;20026;-59
2023/01/09 05:02:12;;;;;;;31.08;19.35;;;5.20;99.90;;;;;;7374549;19;20472;-59
2023/01/09 05:04:39;;;;;;;31.58;19.55;;;5.30;99.90;;;;;;7370363;19;20014;-59
2023/01/09 05:07:06;;;;;;;27.42;20.58;;;5.20;99.90;;;;;;7374935;19;20025;-59
2023/01/09 05:09:32;;;;;;;28.75;19.55;;;5.30;99.90;;;;;;7373103;19;20019;-60
2023/01/09 05:11:59;;;;;;;28.67;20.35;;;5.40;99.90;;;;;;7371191;19;20378;-59
2023/01/09 05:14:25;;;;;;;31.60;21.58;;;5.40;99.90;;;;;;7375271;19;20492;-59
2023/01/09 05:16:51;;;;;;;32.08;20.38;;;5.30;99.90;;;;;;7371370;19;20014;-59
2023/01/09 05:19:18;;;;;;;32.20;22.75;;;5.40;99.90;;;;;;7371624;19;20022;-59
2023/01/09 05:21:44;;;;;;;32.95;21.67;;;5.40;99.90;;;;;;7382375;19;20022;-56
2023/01/09 05:24:11;;;;;;;29.20;20.38;;;5.40;99.90;;;;;;7391739;19;20359;-56
2023/01/09 05:26:37;;;;;;;29.05;20.65;;;5.40;99.90;;;;;;7388451;19;20053;-56
2023/01/09 05:29:05;;;;;;;30.38;19.73;;;5.50;99.90;;;;;;7373062;19;20081;-56
2023/01/09 05:31:31;;;;;;;26.42;18.90;;;5.50;99.90;;;;;;7383681;19;20538;-59
2023/01/09 05:33:59;;;;;;;30.20;19.08;;;5.60;99.90;;;;;;7384775;19;20097;-56
2023/01/09 05:36:25;;;;;;;27.05;18.92;;;5.60;99.90;;;;;;7384423;19;20019;-56
2023/01/09 05:38:52;;;;;;;27.52;18.42;;;5.60;99.90;;;;;;7386880;19;20022;-56
2023/01/09 05:41:25;;;;;;;24.55;18.20;;;5.60;99.90;;;;;;7380766;19;20022;-55
2023/01/09 05:43:55;;;;;;;25.35;18.02;;;5.60;99.90;;;;;;7385546;19;20389;-56
2023/01/09 05:46:22;;;;;;;25.88;17.48;;;5.60;99.90;;;;;;7385820;19;20014;-56
2023/01/09 05:48:48;;;;;;;24.02;15.43;;;5.70;99.90;;;;;;7383497;19;20014;-56
2023/01/09 05:51:15;;;;;;;21.08;15.23;;;5.60;99.90;;;;;;7384762;19;20010;-56
2023/01/09 05:53:42;;;;;;;25.38;16.80;;;5.60;99.90;;;;;;7385082;19;20011;-56
2023/01/09 05:56:08;;;;;;;17.92;14.25;;;5.70;99.90;;;;;;7385202;19;20023;-56
2023/01/09 05:58:35;;;;;;;23.08;16.35;;;5.70;99.90;;;;;;7386678;19;20049;-57
2023/01/09 06:01:05;;;;;;;25.17;15.65;;;5.70;99.90;;;;;;7383003;19;20019;-56
2023/01/09 06:03:31;;;;;;;20.13;14.80;;;5.70;99.90;;;;;;7383779;19;20094;-58
2023/01/09 06:05:58;;;;;;;22.95;16.05;;;5.70;99.90;;;;;;7379362;19;20394;-56
2023/01/09 06:08:26;;;;;;;18.48;14.02;;;5.70;99.90;;;;;;7384484;19;20449;-56
2023/01/09 06:10:52;;;;;;;25.92;15.88;;;5.70;99.90;;;;;;7383162;19;20018;-56
2023/01/09 06:13:20;;;;;;;20.45;15.00;;;5.70;99.90;;;;;;7384017;19;20015;-56
2023/01/09 06:15:49;;;;;;;20.95;14.45;;;5.70;99.90;;;;;;7386675;19;20037;-57
2023/01/09 06:18:18;;;;;;;17.95;13.85;;;5.70;99.90;;;;;;7385285;19;20020;-59
2023/01/09 06:20:45;;;;;;;20.88;13.57;;;5.70;99.90;;;;;;7382596;19;20007;-56
2023/01/09 06:23:11;;;;;;;20.92;13.75;;;5.60;99.90;;;;;;7355908;19;114088;-56
2023/01/09 06:25:38;;;;;;;17.85;13.63;;;5.60;99.90;;;;;;7384811;19;20152;-56
2023/01/09 06:28:05;;;;;;;20.60;13.02;;;5.60;99.90;;;;;;7382934;19;20020;-57
2023/01/09 06:30:32;;;;;;;16.38;11.98;;;5.70;99.90;;;;;;7378442;19;20022;-56
2023/01/09 06:32:59;;;;;;;18.17;11.65;;;5.70;99.90;;;;;;7380704;19;20018;-56
2023/01/09 06:35:27;;;;;;;19.70;13.23;;;5.70;99.90;;;;;;7384101;19;20339;-56
2023/01/09 06:37:54;;;;;;;18.70;11.90;;;5.70;99.90;;;;;;7383419;19;20027;-56
2023/01/09 06:40:20;;;;;;;16.73;10.77;;;5.70;99.90;;;;;;7382108;19;20492;-57
2023/01/09 06:42:48;;;;;;;15.63;11.02;;;5.70;99.90;;;;;;7382120;19;20472;-57
2023/01/09 06:45:15;;;;;;;14.15;9.32;;;5.70;99.90;;;;;;7382665;19;20041;-56
2023/01/09 06:47:42;;;;;;;11.50;10.30;;;5.60;99.90;;;;;;7385136;19;20022;-56
2023/01/09 06:50:10;;;;;;;17.40;9.13;;;5.60;99.90;;;;;;7376790;19;20015;-60
2023/01/09 06:52:37;;;;;;;12.85;9.52;;;5.50;99.90;;;;;;7361871;19;20501;-59
2023/01/09 06:55:04;;;;;;;15.38;9.10;;;5.50;99.90;;;;;;7359044;19;20030;-58
2023/01/09 06:57:51;;;;;;;17.05;8.80;;;5.40;99.90;;;;;;7357574;19;20105;-59
2023/01/09 07:00:37;;;;;;;14.27;8.35;;;5.40;99.90;;;;;;7360697;19;20109;-59
2023/01/09 07:03:23;;;;;;;13.77;8.60;;;5.50;99.90;;;;;;7365951;19;20014;-59
2023/01/09 07:05:57;;;;;;;12.93;8.20;;;5.50;99.90;;;;;;7358054;19;20022;-59
2023/01/09 07:08:24;;;;;;;10.80;8.27;;;5.50;99.90;;;;;;7363163;19;20045;-59
2023/01/09 07:10:50;;;;;;;14.40;8.05;;;5.50;99.90;;;;;;7361103;19;20342;-59
2023/01/09 07:13:17;;;;;;;12.70;7.65;;;5.50;99.90;;;;;;7363777;19;20811;-59
2023/01/09 07:15:43;;;;;;;14.52;8.43;;;5.50;99.90;;;;;;7356382;19;20094;-59
2023/01/09 07:18:10;;;;;;;11.80;7.72;;;5.50;99.90;;;;;;7370339;19;20145;-56
2023/01/09 07:20:40;;;;;;;13.45;8.18;;;5.50;99.90;;;;;;7377949;19;20033;-57
2023/01/09 07:23:14;;;;;;;16.05;8.88;;;5.50;99.90;;;;;;7382030;19;20526;-56
2023/01/09 07:25:42;;;;;;;12.80;8.40;;;5.50;99.90;;;;;;7381497;19;20355;-56
2023/01/09 07:28:09;;;;;;;11.77;7.78;;;5.50;99.90;;;;;;7379605;19;20015;-56
2023/01/09 07:30:36;;;;;;;12.70;7.47;;;5.50;99.90;;;;;;7381255;19;20346;-56
2023/01/09 07:33:02;;;;;;;10.55;7.43;;;5.50;99.90;;;;;;7380876;19;20121;-56
2023/01/09 07:35:28;;;;;;;16.17;7.65;;;5.50;99.90;;;;;;7367829;19;20022;-59
2023/01/09 07:37:55;;;;;;;14.02;7.22;;;5.50;99.90;;;;;;7356768;19;20480;-59
2023/01/09 07:40:21;;;;;;;13.85;7.80;;;5.50;99.90;;;;;;7363200;19;20486;-59
2023/01/09 07:42:48;;;;;;;11.27;6.63;;;5.50;99.90;;;;;;7355790;19;20023;-59
2023/01/09 07:45:14;;;;;;;12.50;7.88;;;5.50;99.90;;;;;;7359019;19;20516;-59
2023/01/09 07:47:42;;;;;;;14.85;7.18;;;5.50;99.90;;;;;;7360767;19;20070;-59
2023/01/09 07:50:09;;;;;;;14.32;7.00;;;5.50;99.90;;;;;;7378786;19;20027;-57
2023/01/09 07:52:36;;;;;;;12.45;7.15;;;5.50;99.90;;;;;;7382586;19;20518;-56
2023/01/09 07:55:02;;;;;;;9.52;7.18;;;5.50;99.90;;;;;;7373654;19;20444;-59
2023/01/09 07:57:29;;;;;;;12.70;7.65;;;5.50;99.90;;;;;;7366845;19;20053;-59
2023/01/09 07:59:56;;;;;;;10.80;6.60;;;5.50;99.90;;;;;;7364251;19;20015;-58
2023/01/09 08:02:24;;;;;;;11.85;7.18;;;5.50;99.90;;;;;;7373596;19;20025;-56
2023/01/09 08:04:50;;;;;;;11.48;7.05;;;5.50;99.90;;;;;;7387668;19;20015;-57
2023/01/09 08:07:16;;;;;;;13.05;7.05;;;5.50;99.90;;;;;;7388366;19;20391;-57
2023/01/09 08:09:45;;;;;;;10.70;6.22;;;5.50;99.90;;;;;;7387448;19;20505;-56
2023/01/09 08:12:11;;;;;;;11.43;6.45;;;5.50;99.90;;;;;;7382844;19;20032;-59
2023/01/09 08:14:38;;;;;;;11.98;6.75;;;5.50;99.90;;;;;;7368516;19;20022;-59
2023/01/09 08:17:04;;;;;;;15.95;6.40;;;5.60;99.90;;;;;;7363276;19;20388;-59
2023/01/09 08:19:30;;;;;;;8.52;5.88;;;5.60;99.90;;;;;;7365628;19;20029;-59
2023/01/09 08:22:01;;;;;;;11.70;6.05;;;5.60;99.90;;;;;;7365197;19;20026;-59
2023/01/09 08:24:28;;;;;;;12.02;6.40;;;5.70;99.90;;;;;;7373236;19;20391;-59
2023/01/09 08:26:55;;;;;;;12.02;6.50;;;5.70;99.90;;;;;;7362772;19;20472;-58
2023/01/09 08:29:21;;;;;;;12.10;6.05;;;5.70;99.90;;;;;;7364484;19;20022;-59
2023/01/09 08:31:47;;;;;;;10.73;5.60;;;5.80;99.90;;;;;;7373380;19;20336;-56
2023/01/09 08:34:14;;;;;;;15.27;6.75;;;5.80;99.90;;;;;;7376497;19;20019;-59
2023/01/09 08:36:40;;;;;;;12.52;6.70;;;5.80;99.90;;;;;;7366265;19;20389;-58
2023/01/09 08:39:08;;;;;;;11.73;7.05;;;5.80;99.90;;;;;;7367732;19;20019;-59
2023/01/09 08:47:07;;;;;;;13.73;5.75;;;5.90;99.90;;;;;;7367361;19;20010;-59
2023/01/09 08:49:36;;;;;;;14.27;5.93;;;5.90;99.90;;;;;;7369499;19;20456;-58
2023/01/09 08:52:03;;;;;;;10.73;5.80;;;5.90;99.90;;;;;;7359029;19;20473;-59
2023/01/09 08:54:38;;;;;;;12.82;6.07;;;6.00;99.90;;;;;;7368522;19;20011;-59
2023/01/09 08:57:06;;;;;;;13.23;5.90;;;6.00;99.90;;;;;;7365859;19;20014;-59
2023/01/09 08:59:33;;;;;;;17.55;6.88;;;6.00;99.90;;;;;;7366133;19;20023;-59
2023/01/09 09:02:00;;;;;;;11.00;6.85;;;6.00;99.90;;;;;;7361728;19;20019;-59
2023/01/09 09:04:28;;;;;;;13.48;6.43;;;6.10;99.90;;;;;;7364472;19;20054;-59
2023/01/09 09:06:55;;;;;;;14.13;6.32;;;6.10;99.90;;;;;;7363327;19;20098;-58
2023/01/09 09:09:22;;;;;;;12.70;6.10;;;6.20;99.90;;;;;;7368406;19;20031;-58
2023/01/09 09:11:51;;;;;;;12.80;6.38;;;6.20;99.90;;;;;;7378219;19;20519;-56
2023/01/09 09:17:32;;;;;;;9.13;5.55;;;6.30;99.90;;;;;;7381224;19;20074;-56
2023/01/09 09:20:18;;;;;;;15.60;6.40;;;6.30;99.90;;;;;;7383617;19;20104;-57
2023/01/09 09:23:07;;;;;;;12.85;6.35;;;6.40;99.90;;;;;;7382693;19;20405;-57
2023/01/09 09:25:53;;;;;;;10.55;5.43;;;6.40;99.90;;;;;;7384541;19;20042;-56
2023/01/09 09:28:39;;;;;;;11.82;5.72;;;6.50;99.90;;;;;;7378550;19;20037;-58
2023/01/09 09:31:25;;;;;;;12.63;6.05;;;6.60;99.90;;;;;;7380512;19;20017;-56
2023/01/09 09:34:12;;;;;;;11.80;5.75;;;6.70;99.90;;;;;;7384520;19;20037;-57
2023/01/09 09:36:58;;;;;;;14.93;5.70;;;6.70;99.90;;;;;;7382896;19;20041;-56
2023/01/09 09:39:44;;;;;;;11.75;5.55;;;6.70;99.90;;;;;;7382022;19;20010;-56
2023/01/09 09:46:47;;;;;;;17.67;5.28;;;6.70;99.90;;;;;;7381364;19;20029;-57
2023/01/09 09:49:56;;;;;;;13.80;5.47;;;6.70;99.90;;;;;;7362664;19;20047;-58
2023/01/09 09:52:50;;;;;;;13.82;5.30;;;6.80;99.90;;;;;;7364312;19;20110;-58
2023/01/09 09:55:25;;;;;;;10.18;4.82;;;6.80;99.90;;;;;;7366537;19;20386;-58
2023/01/09 09:57:54;;;;;;;9.90;5.45;;;6.80;99.90;;;;;;7363695;19;20370;-59
2023/01/09 10:00:22;;;;;;;10.27;5.63;;;6.80;99.90;;;;;;7365611;19;20869;-58
2023/01/09 10:03:03;;;;;;;10.85;5.25;;;6.80;99.90;;;;;;7361556;19;20026;-59
2023/01/09 10:05:34;;;;;;;10.57;5.03;;;6.90;99.90;;;;;;7368015;19;20014;-58
2023/01/09 10:08:35;;;;;;;15.10;5.93;;;6.90;99.90;;;;;;7366297;19;20014;-58
2023/01/09 10:11:04;;;;;;;10.93;4.80;;;6.90;99.90;;;;;;7362139;19;20014;-58
2023/01/09 10:16:25;;;;;;;13.55;5.78;;;6.90;99.90;;;;;;7364473;19;20388;-58
2023/01/09 10:18:54;;;;;;;11.63;5.32;;;7.00;99.90;;;;;;7363056;19;20389;-59
2023/01/09 10:21:46;;;;;;;13.15;6.03;;;7.00;99.90;;;;;;7365477;19;20437;-56
2023/01/09 10:24:44;;;;;;;12.20;5.47;;;7.00;99.90;;;;;;7381785;19;20015;-56
2023/01/09 10:27:28;;;;;;;9.60;4.95;;;7.00;99.90;;;;;;7381495;19;20138;-57
2023/01/09 10:29:54;;;;;;;13.10;5.40;;;7.10;99.90;;;;;;7382072;19;20022;-57
2023/01/09 10:32:51;;;;;;;9.40;4.93;;;7.10;99.90;;;;;;7382732;19;20018;-56
2023/01/09 10:35:35;;;;;;;7.05;5.40;;;7.10;99.90;;;;;;7365683;19;20030;-58
2023/01/09 10:38:05;;;;;;;10.93;5.18;;;7.10;99.90;;;;;;7382205;19;20031;-56
2023/01/09 10:40:42;;;;;;;9.95;5.32;;;7.10;99.90;;;;;;7361802;19;20036;-58
2023/01/09 10:43:27;;;;;;;11.48;5.95;;;7.10;99.90;;;;;;7360640;19;20015;-58
2023/01/09 10:46:00;;;;;;;8.82;5.63;;;7.20;99.90;;;;;;7380791;19;20053;-56
2023/01/09 10:48:30;;;;;;;13.95;5.88;;;7.10;99.90;;;;;;7380766;19;20029;-57
2023/01/09 10:50:56;;;;;;;14.15;6.00;;;7.10;99.90;;;;;;7379098;19;20014;-57
2023/01/09 10:53:31;;;;;;;13.32;6.15;;;7.10;99.90;;;;;;7372413;19;20369;-56
2023/01/09 10:56:19;;;;;;;12.93;5.53;;;7.10;99.90;;;;;;7379028;19;20175;-56
2023/01/09 10:58:46;;;;;;;13.90;6.20;;;7.10;99.90;;;;;;7373589;19;20027;-59
2023/01/09 11:01:21;;;;;;;9.77;5.90;;;7.20;99.90;;;;;;7359253;19;22062;-58
2023/01/09 11:03:48;;;;;;;10.15;6.32;;;7.20;99.90;;;;;;7361085;19;20465;-58
2023/01/09 11:06:28;;;;;;;12.48;6.57;;;7.20;99.90;;;;;;7359865;19;20014;-58
2023/01/09 11:08:58;;;;;;;10.57;6.57;;;7.30;99.90;;;;;;7378147;19;20011;-57
2023/01/09 11:11:32;;;;;;;8.68;6.45;;;7.40;99.90;;;;;;7378090;19;20386;-56
2023/01/09 11:14:16;;;;;;;13.55;6.97;;;7.40;99.90;;;;;;7375797;19;20022;-56
2023/01/09 11:16:54;;;;;;;16.85;6.75;;;7.40;99.90;;;;;;7379682;19;20371;-57
2023/01/09 11:19:21;;;;;;;11.40;6.88;;;7.40;99.90;;;;;;7376371;19;20899;-61
2023/01/09 11:21:47;;;;;;;13.68;6.80;;;7.40;99.90;;;;;;7376024;19;20022;-56
2023/01/09 11:24:20;;;;;;;13.82;7.18;;;7.30;99.90;;;;;;7377719;19;20030;-56
2023/01/09 11:26:53;;;;;;;11.50;7.38;;;7.30;99.90;;;;;;7380870;19;20125;-56
2023/01/09 11:29:23;;;;;;;12.95;8.05;;;7.20;99.90;;;;;;7385346;19;20014;-56
2023/01/09 11:31:56;;;;;;;13.57;8.77;;;7.20;99.90;;;;;;7384018;19;20094;-56
2023/01/09 11:34:35;;;;;;;14.52;9.23;;;7.30;99.90;;;;;;7385931;19;20022;-56
2023/01/09 11:37:09;;;;;;;12.70;9.60;;;7.30;99.90;;;;;;7386496;19;20014;-55
2023/01/09 11:39:40;;;;;;;16.13;9.52;;;7.30;99.90;;;;;;7388635;19;20101;-55
2023/01/09 11:42:17;;;;;;;15.43;10.05;;;7.30;99.90;;;;;;7380834;19;20459;-56
2023/01/09 11:44:44;;;;;;;17.23;10.15;;;7.30;99.90;;;;;;7386492;19;20042;-55
2023/01/09 11:47:25;;;;;;;15.32;11.13;;;7.30;99.90;;;;;;7384651;19;20007;-55
2023/01/09 11:50:17;;;;;;;15.13;10.43;;;7.30;99.90;;;;;;7385030;19;20448;-56
2023/01/09 11:52:44;;;;;;;;;;;7.30;99.90;;;;;;7385660;19;20018;-55
2023/01/09 11:55:16;;;;;;;15.30;11.02;;;7.30;99.90;;;;;;7384814;19;20251;-55
2023/01/09 11:57:43;;;;;;;15.90;10.93;;;7.30;99.90;;;;;;7386469;19;20017;-55
2023/01/09 12:00:25;;;;;;;14.15;11.05;;;7.30;99.90;;;;;;7386076;19;20014;-56
2023/01/09 12:03:12;;;;;;;18.15;11.90;;;7.30;99.90;;;;;;7383858;19;20019;-55
2023/01/09 12:05:56;;;;;;;19.33;12.10;;;7.30;99.90;;;;;;7382607;19;20046;-55
2023/01/09 12:08:34;;;;;;;20.45;11.77;;;7.30;99.90;;;;;;7388745;19;20638;-56
2023/01/09 12:11:11;;;;;;;16.35;11.93;;;7.30;99.90;;;;;;7385838;19;20025;-55
2023/01/09 12:14:00;;;;;;;20.67;13.32;;;7.30;99.90;;;;;;7385735;19;20042;-56
2023/01/09 12:16:39;;;;;;;18.02;12.40;;;7.40;99.90;;;;;;7386057;19;20033;-55
2023/01/09 12:19:38;;;;;;;19.52;12.82;;;7.40;99.90;;;;;;7386131;19;20010;-56
2023/01/09 12:22:26;;;;;;;21.75;13.43;;;7.50;99.90;;;;;;7383310;19;20792;-55
2023/01/09 12:24:55;;;;;;;18.45;12.98;;;7.50;99.90;;;;;;7371381;19;20112;-57
2023/01/09 12:27:52;;;;;;;14.88;11.30;;;7.50;99.90;;;;;;7367823;19;20389;-57
2023/01/09 12:30:25;;;;;;;15.55;12.55;;;7.50;99.90;;;;;;7367762;19;20021;-57
2023/01/09 12:33:35;;;;;;;17.50;12.18;;;7.50;99.90;;;;;;7366503;19;20410;-57
2023/01/09 12:36:19;;;;;;;16.17;11.55;;;7.50;99.90;;;;;;7360839;19;20470;-57
2023/01/09 12:38:54;;;;;;;19.75;12.75;;;7.60;99.90;;;;;;7367699;19;20441;-57
2023/01/09 12:41:26;;;;;;;17.02;12.02;;;7.60;99.90;;;;;;7363918;19;20063;-57
2023/01/09 12:44:01;;;;;;;17.67;12.07;;;7.60;99.90;;;;;;7367056;19;20480;-57
2023/01/09 12:46:51;;;;;;;16.55;12.23;;;7.60;99.90;;;;;;7363299;19;20026;-57
2023/01/09 12:49:34;;;;;;;16.58;11.65;;;7.60;99.90;;;;;;7366903;19;20040;-57
2023/01/09 12:52:09;;;;;;;19.48;13.68;;;7.60;99.90;;;;;;7361593;19;20014;-57
2023/01/09 12:54:54;;;;;;;17.13;13.05;;;7.70;99.90;;;;;;7369954;19;20015;-55
2023/01/09 12:57:34;;;;;;;16.33;12.27;;;7.70;99.90;;;;;;7386646;19;20361;-55
2023/01/09 13:00:20;;;;;;;18.48;13.05;;;7.70;99.90;;;;;;7385023;19;20477;-55
2023/01/09 13:03:09;;;;;;;20.00;13.27;;;7.70;99.90;;;;;;7385024;19;20481;-55
2023/01/09 13:05:41;;;;;;;22.30;13.40;;;7.70;99.90;;;;;;7381071;19;20014;-55
2023/01/09 13:08:20;;;;;;;18.60;12.27;;;7.70;99.90;;;;;;7377255;19;20065;-57
2023/01/09 13:11:09;;;;;;;19.63;14.13;;;7.70;99.90;;;;;;7372534;19;20025;-55
2023/01/09 13:13:45;;;;;;;22.13;14.60;;;7.70;99.90;;;;;;7379130;19;20469;-57
2023/01/09 13:16:21;;;;;;;19.08;13.32;;;7.70;99.90;;;;;;7361315;19;20025;-57
2023/01/09 13:18:57;;;;;;;18.02;14.40;;;7.70;99.90;;;;;;7374809;19;20396;-56
2023/01/09 13:21:25;;;;;;;20.40;14.18;;;7.80;99.90;;;;;;7383337;19;20018;-55
2023/01/09 13:24:15;;;;;;;20.13;13.63;;;7.80;99.90;;;;;;7384316;19;20015;-56
2023/01/09 13:26:46;;;;;;;21.38;13.40;;;7.80;99.90;;;;;;7384030;19;20584;-56
2023/01/09 13:29:18;;;;;;;21.25;13.95;;;7.80;99.90;;;;;;7377114;19;20028;-57
2023/01/09 13:32:00;;;;;;;19.00;13.23;;;7.80;99.90;;;;;;7384231;19;20532;-56
2023/01/09 13:34:30;;;;;;;16.70;13.55;;;7.80;99.90;;;;;;7374528;19;20023;-55